Flight Track Log - Related Links

Times and Time Zones

All times are in EDT time to prevent confusion due to time zone crossing. See the CTL18 flight status page for this flight to view local times or setup timezone preferences in your user account.

Time Position Orientation Groundspeed Altitude Reporting Facility
EDT Latitude Longitude Course Direction KTS MPH feet Rate Location/Type
Mon 09:45:10 PM 42.2239 -83.5497 227° Southwest 105 121 1,200  Level Cleveland Center
Mon 09:45:59 PM 42.2086 -83.5717 227° Southwest 99 114 2,100 982 Climbing Cleveland Center
Mon 09:47:00 PM 42.1853 -83.5956 217° Southwest 101 116 3,000 446 Climbing Cleveland Center
Mon 09:48:00 PM 42.1553 -83.6167 208° Southwest 151 174 3,000  Level Cleveland Center
Mon 09:48:55 PM 42.1181 -83.6094 172° South 151 174 3,000  Level Cleveland Center
Mon 09:49:55 PM 42.0744 -83.6017 172° South 154 177 3,000  Level Cleveland Center
Mon 09:50:50 PM 42.0569 -83.5506 115° Southeast 177 204 3,000 -52 Level Cleveland Center
Mon 09:51:51 PM 42.0378 -83.4881 112° Southeast 178 205 2,900 50 Descending Cleveland Center
Mon 09:52:51 PM 42.0183 -83.4283 114° Southeast 175 201 3,100 417 Climbing Cleveland Center
Mon 09:53:46 PM 42.0031 -83.3775 112° Southeast 145 167 3,700 678 Climbing Cleveland Center
Mon 09:54:46 PM 41.9897 -83.3267 109° East 147 169 4,400 545 Climbing Cleveland Center
Mon 09:55:47 PM 41.9742 -83.2728 111° Southeast 151 174 4,800 281 Climbing Cleveland Center
Mon 09:56:54 PM 41.9547 -83.2106 113° Southeast 173 199 5,000 90 Climbing Cleveland Center
Mon 09:58:01 PM 41.9375 -83.1458 110° East 173 199 5,000  Level Cleveland Center
Mon 09:59:07 PM 41.9161 -83.0778 113° Southeast 174 200 5,000  Level Cleveland Center
Mon 10:00:11 PM 41.8986 -83.0158 111° Southeast 174 200 5,000  Level Cleveland Center
Mon 10:01:12 PM 41.8792 -82.9536 113° Southeast 174 200 5,000  Level Cleveland Center
Mon 10:02:18 PM 41.8619 -82.8833 108° East 175 201 5,000  Level Cleveland Center
Mon 10:03:19 PM 41.8464 -82.8214 109° East 174 200 5,000  Level Cleveland Center
Mon 10:04:19 PM 41.8244 -82.7650 118° Southeast 167 192 5,000  Level Cleveland Center
Mon 10:05:20 PM 41.8111 -82.7089 108° East 170 196 5,000  Level Cleveland Center
Mon 10:06:27 PM 41.7933 -82.6414 109° East 167 192 5,000  Level Cleveland Center
Mon 10:07:33 PM 41.7736 -82.5767 112° Southeast 168 193 5,000  Level Cleveland Center
Mon 10:08:22 PM 41.7619 -82.5317 109° East 168 193 5,000  Level Cleveland Center
Mon 10:09:29 PM 41.7422 -82.4644 111° Southeast 169 194 5,000  Level Cleveland Center
Mon 10:10:29 PM 41.7225 -82.4053 114° Southeast 169 194 5,000 -52 Level Cleveland Center
Mon 10:11:24 PM 41.7108 -82.3494 106° East 172 198 4,900 -365 Descending Cleveland Center
Mon 10:12:24 PM 41.6950 -82.2822 107° East 190 219 4,300 -496 Descending Cleveland Center
Mon 10:13:25 PM 41.6772 -82.2206 111° Southeast 184 212 3,900 -393 Descending Cleveland Center
Mon 10:14:26 PM 41.6614 -82.1592 109° East 177 204 3,500 -283 Descending Cleveland Center
Mon 10:15:32 PM 41.6458 -82.0864 106° East 174 200 3,300 -331 Descending Cleveland Center
Mon 10:16:33 PM 41.6319 -82.0250 107° East 169 194 2,800 -446 Descending Cleveland Center
Mon 10:17:33 PM 41.6181 -81.9636 107° East 162 186 2,400 -347 Descending Cleveland Center
Mon 10:18:34 PM 41.6061 -81.9106 107° East 154 177 2,100 -310 Descending Cleveland Center
Mon 10:19:29 PM 41.5922 -81.8686 114° Southeast 149 171 1,800 -157 Descending Cleveland Center
Mon 10:20:29 PM 41.5739 -81.8183 116° Southeast 144 166 1,800  Level Cleveland Center
Mon 10:21:30 PM 41.5578 -81.7653 112° Southeast 137 158 1,800 -149 Level Cleveland Center
Mon 10:22:30 PM 41.5478 -81.7178 106° East 136 157 1,500 -347 Descending Cleveland Center
Mon 10:23:31 PM 41.5358 -81.6789 112° Southeast 118 136 1,100 -393 Descending Cleveland Center
Mon 10:25:00 PM 41.5167 -81.6667 108° East  Level FlightAware Approximate
Mon 10:32:00 PM 41.5175 -81.6833 108° East  Level Estimated

Login

Don't have an account? Register now (free) for customized features, flight alerts, and more!